createdAt,value
2019-03-25T00:00:34.580Z,88
2019-03-25T00:05:34.525Z,88
2019-03-25T00:10:34.572Z,88
2019-03-25T00:15:34.541Z,88
2019-03-25T00:20:34.543Z,88
2019-03-25T00:25:34.587Z,88
2019-03-25T00:30:34.595Z,88
2019-03-25T00:35:34.552Z,88
2019-03-25T00:40:34.543Z,88
2019-03-25T00:45:34.546Z,88
2019-03-25T00:50:34.558Z,88
2019-03-25T00:55:34.556Z,88
2019-03-25T01:00:34.564Z,88
2019-03-25T01:05:34.566Z,88
2019-03-25T01:10:34.551Z,88
2019-03-25T01:15:34.574Z,88
2019-03-25T01:20:34.591Z,88
2019-03-25T01:25:34.574Z,88
2019-03-25T01:30:34.566Z,88
2019-03-25T01:35:34.578Z,88
2019-03-25T01:40:34.592Z,88
2019-03-25T01:45:34.576Z,88
2019-03-25T01:50:34.584Z,88
2019-03-25T01:55:34.584Z,88
2019-03-25T02:00:34.596Z,88
2019-03-25T02:05:34.595Z,88
2019-03-25T02:10:34.580Z,88
2019-03-25T02:15:34.584Z,88
2019-03-25T02:20:34.610Z,88
2019-03-25T02:25:34.604Z,88
2019-03-25T02:30:34.599Z,88
2019-03-25T02:35:34.624Z,88
2019-03-25T02:40:34.610Z,88
2019-03-25T02:45:34.615Z,88
2019-03-25T02:50:34.631Z,88
2019-03-25T02:55:41.114Z,88
2019-03-25T03:00:34.623Z,88
2019-03-25T03:05:34.638Z,88
2019-03-25T03:10:34.645Z,88
2019-03-25T03:15:34.624Z,88
2019-03-25T03:20:34.643Z,88
2019-03-25T03:25:34.634Z,88
2019-03-25T03:30:34.653Z,88
2019-03-25T03:35:34.643Z,88
2019-03-25T03:40:34.647Z,88
2019-03-25T03:45:34.632Z,88
2019-03-25T03:50:34.649Z,88
2019-03-25T03:55:34.637Z,88
2019-03-25T04:00:34.638Z,88
2019-03-25T04:05:34.757Z,88
2019-03-25T04:10:34.658Z,88
2019-03-25T04:15:34.647Z,88
2019-03-25T04:20:34.683Z,88
2019-03-25T04:25:34.655Z,88
2019-03-25T04:30:34.667Z,88
2019-03-25T04:35:34.673Z,88
2019-03-25T04:40:34.662Z,88
2019-03-25T04:45:34.656Z,88
2019-03-25T04:50:34.672Z,88
2019-03-25T04:55:34.679Z,88
2019-03-25T05:00:34.682Z,88
2019-03-25T05:05:36.014Z,88
2019-03-25T05:10:34.674Z,88
2019-03-25T05:15:34.680Z,88
2019-03-25T05:20:34.690Z,88
2019-03-25T05:25:34.675Z,88
2019-03-25T05:30:34.693Z,88
2019-03-25T05:35:34.697Z,88
2019-03-25T05:40:34.691Z,88
2019-03-25T05:45:34.690Z,88
2019-03-25T05:50:34.716Z,88
2019-03-25T05:55:34.692Z,88
2019-03-25T06:00:34.704Z,88
2019-03-25T06:05:34.698Z,88
2019-03-25T06:10:34.700Z,88
2019-03-25T06:15:34.713Z,88
2019-03-25T06:20:34.726Z,88
2019-03-25T06:25:34.902Z,88
2019-03-25T06:30:34.706Z,88
2019-03-25T06:35:34.711Z,88
2019-03-25T06:40:34.715Z,88
2019-03-25T06:45:34.720Z,88
2019-03-25T06:50:34.730Z,88
2019-03-25T06:55:34.733Z,88
2019-03-25T07:00:34.731Z,88
2019-03-25T07:05:34.731Z,88
2019-03-25T07:10:34.729Z,88
2019-03-25T07:15:34.740Z,88
2019-03-25T07:20:34.735Z,88
2019-03-25T07:25:34.736Z,88
2019-03-25T07:30:34.758Z,88
2019-03-25T07:35:34.734Z,88
2019-03-25T07:40:34.744Z,88
2019-03-25T07:45:34.741Z,88
2019-03-25T07:50:34.753Z,88
2019-03-25T07:55:34.744Z,88
2019-03-25T08:00:34.789Z,88
2019-03-25T08:05:34.813Z,88
2019-03-25T08:10:34.801Z,88
2019-03-25T08:15:34.788Z,88
2019-03-25T08:20:34.763Z,88
2019-03-25T08:25:34.801Z,89
2019-03-25T08:30:34.767Z,91
2019-03-25T08:35:34.774Z,87
2019-03-25T08:40:34.778Z,80
2019-03-25T08:45:34.774Z,66
2019-03-25T08:50:34.776Z,65
2019-03-25T08:55:34.772Z,72
2019-03-25T09:00:34.779Z,80
2019-03-25T09:05:34.795Z,77
2019-03-25T09:10:34.780Z,65
2019-03-25T09:15:34.796Z,57
2019-03-25T09:20:34.794Z,64
2019-03-25T09:25:34.789Z,77
2019-03-25T09:30:34.801Z,79
2019-03-25T09:35:34.801Z,67
2019-03-25T09:40:34.800Z,66
2019-03-25T09:45:34.794Z,71
2019-03-25T09:50:34.814Z,73
2019-03-25T09:55:34.810Z,72
2019-03-25T10:00:34.815Z,74
2019-03-25T10:05:34.822Z,81
2019-03-25T10:10:34.806Z,76
2019-03-25T10:15:34.839Z,74
2019-03-25T10:20:34.844Z,71
2019-03-25T10:25:34.826Z,42
2019-03-25T10:30:34.821Z,36
2019-03-25T10:35:34.833Z,34
2019-03-25T10:40:34.855Z,30
2019-03-25T10:45:34.823Z,38
2019-03-25T10:50:34.840Z,42
2019-03-25T10:55:34.834Z,46
2019-03-25T11:00:34.846Z,50
2019-03-25T11:05:34.837Z,46
2019-03-25T11:10:34.846Z,45
2019-03-25T11:15:34.847Z,46
2019-03-25T11:20:34.842Z,47
2019-03-25T11:25:34.859Z,49
2019-03-25T11:30:34.857Z,51
2019-03-25T11:35:34.881Z,52
2019-03-25T11:40:34.851Z,53
2019-03-25T11:45:34.856Z,50
2019-03-25T11:50:34.859Z,49
2019-03-25T11:55:34.855Z,50
2019-03-25T12:00:34.867Z,51
2019-03-25T12:05:34.887Z,55
2019-03-25T12:10:34.871Z,58
2019-03-25T12:15:34.873Z,66
2019-03-25T12:20:34.896Z,74
2019-03-25T12:25:34.883Z,78
2019-03-25T12:30:34.890Z,78
2019-03-25T12:35:34.901Z,78
2019-03-25T12:40:34.876Z,81
2019-03-25T12:45:34.883Z,84
2019-03-25T12:50:34.893Z,85
2019-03-25T12:55:34.888Z,86
2019-03-25T13:00:34.991Z,89
2019-03-25T13:05:34.896Z,88
2019-03-25T13:10:34.891Z,88
2019-03-25T13:15:34.906Z,88
2019-03-25T13:20:34.901Z,88
2019-03-25T13:25:34.913Z,88
2019-03-25T13:30:34.912Z,88
2019-03-25T13:35:34.905Z,88
2019-03-25T13:40:34.918Z,88
2019-03-25T13:45:34.918Z,88
2019-03-25T13:50:34.923Z,88
2019-03-25T13:55:34.922Z,88
2019-03-25T14:00:34.922Z,88
2019-03-25T14:05:34.936Z,89
2019-03-25T14:10:34.926Z,90
2019-03-25T14:15:34.971Z,90
2019-03-25T14:20:34.975Z,90
2019-03-25T14:25:34.925Z,90
2019-03-25T14:30:34.935Z,90
2019-03-25T14:35:34.939Z,90
2019-03-25T14:40:34.936Z,89
2019-03-25T14:45:34.946Z,89
2019-03-25T14:50:34.963Z,88
2019-03-25T14:55:34.945Z,88
2019-03-25T15:00:34.951Z,88
2019-03-25T15:05:34.975Z,88
2019-03-25T15:10:35.130Z,88
2019-03-25T15:15:34.961Z,88
2019-03-25T15:20:34.959Z,88
2019-03-25T15:25:34.987Z,88
2019-03-25T15:30:36.083Z,88
2019-03-25T15:35:34.970Z,88
2019-03-25T15:40:35.042Z,88
2019-03-25T15:45:34.973Z,88
2019-03-25T15:50:34.984Z,88
2019-03-25T15:55:34.963Z,88
2019-03-25T16:00:34.984Z,88
2019-03-25T16:05:34.975Z,88
2019-03-25T16:10:35.005Z,88
2019-03-25T16:15:34.987Z,88
2019-03-25T16:20:34.985Z,88
2019-03-25T16:25:34.984Z,88
2019-03-25T16:30:34.993Z,88
2019-03-25T16:35:34.994Z,88
2019-03-25T16:40:35.014Z,88
2019-03-25T16:45:35.003Z,88
2019-03-25T16:50:35.002Z,88
2019-03-25T16:55:35.019Z,88
2019-03-25T17:00:35.005Z,88
2019-03-25T17:05:34.998Z,88
2019-03-25T17:10:35.009Z,88
2019-03-25T17:15:35.001Z,88
2019-03-25T17:20:35.008Z,88
2019-03-25T17:25:35.029Z,88
2019-03-25T17:30:35.024Z,88
2019-03-25T17:35:35.022Z,88
2019-03-25T17:40:35.120Z,88
2019-03-25T17:45:35.024Z,88
2019-03-25T17:50:35.022Z,88
2019-03-25T17:55:35.058Z,88
2019-03-25T18:00:35.057Z,88
2019-03-25T18:05:35.043Z,88
2019-03-25T18:10:35.054Z,88
2019-03-25T18:15:35.053Z,88
2019-03-25T18:20:35.032Z,88
2019-03-25T18:25:35.049Z,88
2019-03-25T18:30:35.059Z,88
2019-03-25T18:35:35.053Z,88
2019-03-25T18:40:35.086Z,88
2019-03-25T18:45:35.044Z,88
2019-03-25T18:50:35.053Z,88
2019-03-25T18:55:35.065Z,88
2019-03-25T19:00:35.067Z,88
2019-03-25T19:05:35.076Z,88
2019-03-25T19:10:35.112Z,88
2019-03-25T19:15:35.063Z,88
2019-03-25T19:20:35.147Z,88
2019-03-25T19:25:35.081Z,88
2019-03-25T19:30:35.081Z,88
2019-03-25T19:35:35.087Z,88
2019-03-25T19:40:35.104Z,88
2019-03-25T19:45:35.096Z,88
2019-03-25T19:50:35.082Z,88
2019-03-25T19:55:35.127Z,88
2019-03-25T20:00:35.140Z,88
2019-03-25T20:05:35.101Z,88
2019-03-25T20:10:35.167Z,88
2019-03-25T20:15:45.259Z,88
2019-03-25T20:20:35.102Z,88
2019-03-25T20:25:35.153Z,88
2019-03-25T20:30:35.109Z,88
2019-03-25T20:35:35.132Z,88
2019-03-25T20:40:35.135Z,88
2019-03-25T20:45:35.133Z,88
2019-03-25T20:50:35.165Z,88
2019-03-25T20:55:35.130Z,88
2019-03-25T21:00:35.162Z,88
2019-03-25T21:05:35.177Z,88
2019-03-25T21:10:35.142Z,88
2019-03-25T21:15:35.156Z,88
2019-03-25T21:20:35.117Z,88
2019-03-25T21:25:35.224Z,88
2019-03-25T21:30:47.253Z,88
2019-03-25T21:35:35.161Z,88
2019-03-25T21:40:35.141Z,88
2019-03-25T21:45:35.144Z,88
2019-03-25T21:50:35.190Z,88
2019-03-25T21:55:35.182Z,88
2019-03-25T22:00:35.136Z,88
2019-03-25T22:05:35.149Z,88
2019-03-25T22:10:35.180Z,88
2019-03-25T22:15:35.144Z,88
2019-03-25T22:20:35.162Z,88
2019-03-25T22:25:35.174Z,88
2019-03-25T22:30:35.154Z,88
2019-03-25T22:35:35.157Z,88
2019-03-25T22:40:35.153Z,88
2019-03-25T22:45:35.159Z,88
2019-03-25T22:50:35.154Z,88
2019-03-25T22:55:35.179Z,88
2019-03-25T23:00:35.289Z,88
2019-03-25T23:05:35.168Z,88
2019-03-25T23:10:35.168Z,88
2019-03-25T23:15:35.190Z,88
2019-03-25T23:20:35.175Z,88
2019-03-25T23:25:35.200Z,88
2019-03-25T23:30:35.180Z,88
2019-03-25T23:35:35.192Z,88
2019-03-25T23:40:35.204Z,88
2019-03-25T23:45:35.183Z,88
2019-03-25T23:50:35.204Z,88
2019-03-25T23:55:35.205Z,88
